createdAt,value
2018-12-11T00:00:28.326Z,0.00
2018-12-11T00:01:28.299Z,0.00
2018-12-11T00:02:28.276Z,0.00
2018-12-11T00:03:49.259Z,0.00
2018-12-11T00:04:28.235Z,0.00
2018-12-11T00:05:28.211Z,0.00
2018-12-11T00:06:28.194Z,0.00
2018-12-11T00:07:28.167Z,0.00
2018-12-11T00:08:28.150Z,0.00
2018-12-11T00:09:49.125Z,0.00
2018-12-11T00:10:28.102Z,0.00
2018-12-11T00:11:28.078Z,0.00
2018-12-11T00:12:28.061Z,0.00
2018-12-11T00:13:28.042Z,0.00
2018-12-11T00:14:28.016Z,0.00
2018-12-11T00:15:48.994Z,0.00
2018-12-11T00:16:27.973Z,0.00
2018-12-11T00:17:27.954Z,0.00
2018-12-11T00:18:27.935Z,0.00
2018-12-11T00:19:27.908Z,0.00
2018-12-11T00:20:27.889Z,0.00
2018-12-11T00:21:48.860Z,0.00
2018-12-11T00:22:27.837Z,0.00
2018-12-11T00:23:27.820Z,0.00
2018-12-11T00:24:27.801Z,0.00
2018-12-11T00:25:27.774Z,0.00
2018-12-11T00:26:27.753Z,0.00
2018-12-11T00:27:48.735Z,0.00
2018-12-11T00:28:27.714Z,0.00
2018-12-11T00:29:27.687Z,0.00
2018-12-11T00:30:27.673Z,0.00
2018-12-11T00:31:27.647Z,0.00
2018-12-11T00:32:27.621Z,0.00
2018-12-11T00:33:48.601Z,0.00
2018-12-11T00:34:27.593Z,0.00
2018-12-11T00:35:27.559Z,0.00
2018-12-11T00:36:27.536Z,0.00
2018-12-11T00:37:27.520Z,0.00
2018-12-11T00:38:27.492Z,0.00
2018-12-11T00:39:48.472Z,0.00
2018-12-11T00:40:27.452Z,0.00
2018-12-11T00:41:27.426Z,0.00
2018-12-11T00:42:27.404Z,0.00
2018-12-11T00:43:27.384Z,0.00
2018-12-11T00:44:27.365Z,0.00
2018-12-11T00:45:48.341Z,0.00
2018-12-11T00:46:27.316Z,0.00
2018-12-11T00:47:27.298Z,0.00
2018-12-11T00:48:27.275Z,0.00
2018-12-11T00:49:27.253Z,0.00
2018-12-11T00:50:27.240Z,0.00
2018-12-11T00:51:48.211Z,0.00
2018-12-11T00:52:27.198Z,0.00
2018-12-11T00:53:27.167Z,0.00
2018-12-11T00:54:27.144Z,0.00
2018-12-11T00:55:27.124Z,0.00
2018-12-11T00:56:27.101Z,0.00
2018-12-11T00:57:48.081Z,0.00
2018-12-11T00:58:27.060Z,0.00
2018-12-11T00:59:27.037Z,0.00
2018-12-11T01:00:27.014Z,0.00
2018-12-11T01:01:26.993Z,0.00
2018-12-11T01:02:26.974Z,0.00
2018-12-11T01:03:47.948Z,0.00
2018-12-11T01:04:26.928Z,0.00
2018-12-11T01:05:26.907Z,0.00
2018-12-11T01:06:26.882Z,0.00
2018-12-11T01:07:26.863Z,0.00
2018-12-11T01:08:26.839Z,0.00
2018-12-11T01:09:47.818Z,0.00
2018-12-11T01:10:26.797Z,0.00
2018-12-11T01:11:26.795Z,0.00
2018-12-11T01:12:26.751Z,0.00
2018-12-11T01:13:26.737Z,0.00
2018-12-11T01:14:26.708Z,0.00
2018-12-11T01:15:47.689Z,0.00
2018-12-11T01:16:26.665Z,0.00
2018-12-11T01:17:26.641Z,0.00
2018-12-11T01:18:26.620Z,0.00
2018-12-11T01:19:26.595Z,0.00
2018-12-11T01:20:26.579Z,0.00
2018-12-11T01:21:47.554Z,0.00
2018-12-11T01:22:26.532Z,0.00
2018-12-11T01:23:26.519Z,0.00
2018-12-11T01:24:26.495Z,0.00
2018-12-11T01:25:26.467Z,0.00
2018-12-11T01:26:26.444Z,0.00
2018-12-11T01:27:47.423Z,0.00
2018-12-11T01:28:26.399Z,0.00
2018-12-11T01:29:26.378Z,0.00
2018-12-11T01:30:26.356Z,0.00
2018-12-11T01:31:26.343Z,0.00
2018-12-11T01:32:26.319Z,0.00
2018-12-11T01:33:47.290Z,0.00
2018-12-11T01:34:26.269Z,0.00
2018-12-11T01:35:26.246Z,0.00
2018-12-11T01:36:26.227Z,0.00
2018-12-11T01:37:26.202Z,0.00
2018-12-11T01:38:26.179Z,0.00
2018-12-11T01:39:47.159Z,0.00
2018-12-11T01:40:26.141Z,0.00
2018-12-11T01:41:26.114Z,0.00
2018-12-11T01:42:26.094Z,0.00
2018-12-11T01:43:26.069Z,0.00
2018-12-11T01:44:26.057Z,0.00
2018-12-11T01:45:47.026Z,0.00
2018-12-11T01:46:26.004Z,0.00
2018-12-11T01:47:25.983Z,0.00
2018-12-11T01:48:25.966Z,0.00
2018-12-11T01:49:25.945Z,0.00
2018-12-11T01:50:25.922Z,0.00
2018-12-11T01:51:46.894Z,0.00
2018-12-11T01:52:25.873Z,0.00
2018-12-11T01:53:25.849Z,0.00
2018-12-11T01:54:25.829Z,0.00
2018-12-11T01:55:25.806Z,0.00
2018-12-11T01:56:25.786Z,0.00
2018-12-11T01:57:46.762Z,0.00
2018-12-11T01:58:25.739Z,0.00
2018-12-11T01:59:25.718Z,0.00
2018-12-11T02:00:25.767Z,0.00
2018-12-11T02:01:25.683Z,0.00
2018-12-11T02:02:25.652Z,0.00
2018-12-11T02:03:46.638Z,0.00
2018-12-11T02:04:25.611Z,0.00
2018-12-11T02:05:25.584Z,0.00
2018-12-11T02:06:25.570Z,0.00
2018-12-11T02:07:25.541Z,0.00
2018-12-11T02:08:25.518Z,0.00
2018-12-11T02:09:46.498Z,0.00
2018-12-11T02:10:25.476Z,0.00
2018-12-11T02:11:25.459Z,0.00
2018-12-11T02:12:25.428Z,0.00
2018-12-11T02:13:25.408Z,0.00
2018-12-11T02:14:25.387Z,0.00
2018-12-11T02:15:46.367Z,0.00
2018-12-11T02:16:25.350Z,0.00
2018-12-11T02:17:25.320Z,0.00
2018-12-11T02:18:25.298Z,0.00
2018-12-11T02:19:25.279Z,0.00
2018-12-11T02:20:25.256Z,0.00
2018-12-11T02:21:46.236Z,0.00
2018-12-11T02:22:25.209Z,0.00
2018-12-11T02:23:25.196Z,0.00
2018-12-11T02:24:25.171Z,0.00
2018-12-11T02:25:25.144Z,0.00
2018-12-11T02:26:25.122Z,0.00
2018-12-11T02:27:46.102Z,0.00
2018-12-11T02:28:25.079Z,0.00
2018-12-11T02:29:25.058Z,0.00
2018-12-11T02:30:25.035Z,0.00
2018-12-11T02:31:25.019Z,0.00
2018-12-11T02:32:24.992Z,0.00
2018-12-11T02:33:45.969Z,0.00
2018-12-11T02:34:24.945Z,0.00
2018-12-11T02:35:24.933Z,0.00
2018-12-11T02:36:24.904Z,0.00
2018-12-11T02:37:24.878Z,0.00
2018-12-11T02:38:24.856Z,0.00
2018-12-11T02:39:45.841Z,0.00
2018-12-11T02:40:24.817Z,0.00
2018-12-11T02:41:24.789Z,0.00
2018-12-11T02:42:24.768Z,0.00
2018-12-11T02:43:24.748Z,0.00
2018-12-11T02:44:24.723Z,0.00
2018-12-11T02:45:45.702Z,0.00
2018-12-11T02:46:24.684Z,0.00
2018-12-11T02:47:24.656Z,0.00
2018-12-11T02:48:24.640Z,0.00
2018-12-11T02:49:24.614Z,0.00
2018-12-11T02:50:24.594Z,0.00
2018-12-11T02:51:45.572Z,0.00
2018-12-11T02:52:24.548Z,0.00
2018-12-11T02:53:24.527Z,0.00
2018-12-11T02:54:24.505Z,0.00
2018-12-11T02:55:24.486Z,0.00
2018-12-11T02:56:24.464Z,0.00
2018-12-11T02:57:45.440Z,0.00
2018-12-11T02:58:24.414Z,0.00
2018-12-11T02:59:24.392Z,0.00
2018-12-11T03:00:24.371Z,0.00
2018-12-11T03:01:24.352Z,0.00
2018-12-11T03:02:24.325Z,0.00
2018-12-11T03:03:45.317Z,0.00
2018-12-11T03:04:24.284Z,0.00
2018-12-11T03:05:24.268Z,0.00
2018-12-11T03:06:24.239Z,0.00
2018-12-11T03:07:24.217Z,0.00
2018-12-11T03:08:24.192Z,0.00
2018-12-11T03:09:45.174Z,0.00
2018-12-11T03:10:24.151Z,0.00
2018-12-11T03:11:24.128Z,0.00
2018-12-11T03:12:24.108Z,0.00
2018-12-11T03:13:24.082Z,0.00
2018-12-11T03:14:24.067Z,0.00
2018-12-11T03:15:45.041Z,0.00
2018-12-11T03:16:24.025Z,0.00
2018-12-11T03:17:23.999Z,0.00
2018-12-11T03:18:23.972Z,0.00
2018-12-11T03:19:23.953Z,0.00
2018-12-11T03:20:23.934Z,0.00
2018-12-11T03:21:44.922Z,0.00
2018-12-11T03:22:23.887Z,0.00
2018-12-11T03:23:23.862Z,0.00
2018-12-11T03:24:23.847Z,0.00
2018-12-11T03:25:23.819Z,0.00
2018-12-11T03:26:23.795Z,0.00
2018-12-11T03:27:44.781Z,0.00
2018-12-11T03:28:23.765Z,0.00
2018-12-11T03:29:23.732Z,0.00
2018-12-11T03:30:23.713Z,0.00
2018-12-11T03:31:23.695Z,0.00
2018-12-11T03:32:23.664Z,0.00
2018-12-11T03:33:44.643Z,0.00
2018-12-11T03:34:23.628Z,0.00
2018-12-11T03:35:23.598Z,0.00
2018-12-11T03:36:23.575Z,0.00
2018-12-11T03:37:23.552Z,0.00
2018-12-11T03:38:23.534Z,0.00
2018-12-11T03:39:44.513Z,0.00
2018-12-11T03:40:23.486Z,0.00
2018-12-11T03:41:23.475Z,0.00
2018-12-11T03:42:23.443Z,0.00
2018-12-11T03:43:23.421Z,0.00
2018-12-11T03:44:23.413Z,0.00
2018-12-11T03:45:44.381Z,0.00
2018-12-11T03:46:23.388Z,0.00
2018-12-11T03:47:23.334Z,0.00
2018-12-11T03:48:23.316Z,0.00
2018-12-11T03:49:23.286Z,0.00
2018-12-11T03:50:23.269Z,0.00
2018-12-11T03:51:44.245Z,0.00
2018-12-11T03:52:23.224Z,0.00
2018-12-11T03:53:23.198Z,0.00
2018-12-11T03:54:23.179Z,0.00
2018-12-11T03:55:23.160Z,0.00
2018-12-11T03:56:23.132Z,0.00
2018-12-11T03:57:44.111Z,0.00
2018-12-11T03:58:23.090Z,0.00
2018-12-11T03:59:23.066Z,0.00
2018-12-11T04:00:23.050Z,0.00
2018-12-11T04:01:23.027Z,0.00
2018-12-11T04:02:23.001Z,0.00
2018-12-11T04:03:43.980Z,0.00
2018-12-11T04:04:22.960Z,0.00
2018-12-11T04:05:22.933Z,0.00
2018-12-11T04:06:22.911Z,0.00
2018-12-11T04:07:22.902Z,0.00
2018-12-11T04:08:22.867Z,0.00
2018-12-11T04:09:43.850Z,0.00
2018-12-11T04:10:22.824Z,0.00
2018-12-11T04:11:22.804Z,0.00
2018-12-11T04:12:22.779Z,0.00
2018-12-11T04:13:22.757Z,0.00
2018-12-11T04:14:22.737Z,0.00
2018-12-11T04:15:43.724Z,0.00
2018-12-11T04:16:22.691Z,0.00
2018-12-11T04:17:22.667Z,0.00
2018-12-11T04:18:22.655Z,0.00
2018-12-11T04:19:22.625Z,0.00
2018-12-11T04:20:22.602Z,0.00
2018-12-11T04:21:43.582Z,0.00
2018-12-11T04:22:22.558Z,0.00
2018-12-11T04:23:22.537Z,0.00
2018-12-11T04:24:22.515Z,0.00
2018-12-11T04:25:22.499Z,0.00
2018-12-11T04:26:22.470Z,0.00
2018-12-11T04:27:43.450Z,0.00
2018-12-11T04:28:22.425Z,0.00
2018-12-11T04:29:22.402Z,0.00
2018-12-11T04:30:22.384Z,0.00
2018-12-11T04:31:22.364Z,0.00
2018-12-11T04:32:22.336Z,0.00
2018-12-11T04:33:43.316Z,0.00
2018-12-11T04:34:22.291Z,0.00
2018-12-11T04:35:22.274Z,0.00
2018-12-11T04:36:22.248Z,0.00
2018-12-11T04:37:22.226Z,0.00
2018-12-11T04:38:22.203Z,0.00
2018-12-11T04:39:43.196Z,0.00
2018-12-11T04:40:22.162Z,0.00
2018-12-11T04:41:22.139Z,0.00
2018-12-11T04:42:22.114Z,0.00
2018-12-11T04:43:22.097Z,0.00
2018-12-11T04:44:22.070Z,0.00
2018-12-11T04:45:43.052Z,0.00
2018-12-11T04:46:22.029Z,0.00
2018-12-11T04:47:22.008Z,0.00
2018-12-11T04:48:21.981Z,0.00
2018-12-11T04:49:21.963Z,0.00
2018-12-11T04:50:21.943Z,0.00
2018-12-11T04:51:42.922Z,0.00
2018-12-11T04:52:21.895Z,0.00
2018-12-11T04:53:21.873Z,0.00
2018-12-11T04:54:21.851Z,0.00
2018-12-11T04:55:21.829Z,0.00
2018-12-11T04:56:21.804Z,0.00
2018-12-11T04:57:42.786Z,0.00
2018-12-11T04:58:21.762Z,0.00
2018-12-11T04:59:21.738Z,0.00
2018-12-11T05:00:21.720Z,0.00
2018-12-11T05:01:21.694Z,0.00
2018-12-11T05:02:21.678Z,0.00
2018-12-11T05:03:42.655Z,0.00
2018-12-11T05:04:21.635Z,0.00
2018-12-11T05:05:21.606Z,0.00
2018-12-11T05:06:21.585Z,0.00
2018-12-11T05:07:21.563Z,0.00
2018-12-11T05:08:21.543Z,0.00
2018-12-11T05:09:42.519Z,0.00
2018-12-11T05:10:21.496Z,0.00
2018-12-11T05:11:21.479Z,0.00
2018-12-11T05:12:21.460Z,0.00
2018-12-11T05:13:21.432Z,0.00
2018-12-11T05:14:21.407Z,0.00
2018-12-11T05:15:42.387Z,0.00
2018-12-11T05:16:21.367Z,0.00
2018-12-11T05:17:21.341Z,0.00
2018-12-11T05:18:21.393Z,0.00
2018-12-11T05:19:21.302Z,0.00
2018-12-11T05:20:21.282Z,0.00
2018-12-11T05:21:42.256Z,0.00
2018-12-11T05:22:21.231Z,0.00
2018-12-11T05:23:21.220Z,0.00
2018-12-11T05:24:21.188Z,0.00
2018-12-11T05:25:21.166Z,0.00
2018-12-11T05:26:21.143Z,0.00
2018-12-11T05:27:42.123Z,0.00
2018-12-11T05:28:21.101Z,0.00
2018-12-11T05:29:21.106Z,0.00
2018-12-11T05:30:21.056Z,0.00
2018-12-11T05:31:21.035Z,0.00
2018-12-11T05:32:21.015Z,0.00
2018-12-11T05:33:41.993Z,0.00
2018-12-11T05:34:20.973Z,0.00
2018-12-11T05:35:20.951Z,0.00
2018-12-11T05:36:20.930Z,0.00
2018-12-11T05:37:20.903Z,0.00
2018-12-11T05:38:20.883Z,0.00
2018-12-11T05:39:41.865Z,0.00
2018-12-11T05:40:20.840Z,0.00
2018-12-11T05:41:20.820Z,0.00
2018-12-11T05:42:20.799Z,0.00
2018-12-11T05:43:20.774Z,0.00
2018-12-11T05:44:20.765Z,0.00
2018-12-11T05:45:41.733Z,0.00
2018-12-11T05:46:20.709Z,0.00
2018-12-11T05:47:20.688Z,0.00
2018-12-11T05:48:20.668Z,0.00
2018-12-11T05:49:20.649Z,0.00
2018-12-11T05:50:20.631Z,0.00
2018-12-11T05:51:41.602Z,0.00
2018-12-11T05:52:20.582Z,0.00
2018-12-11T05:53:20.564Z,0.00
2018-12-11T05:54:20.536Z,0.00
2018-12-11T05:55:20.514Z,0.00
2018-12-11T05:56:20.492Z,0.00
2018-12-11T05:57:41.474Z,0.00
2018-12-11T05:58:20.450Z,0.00
2018-12-11T05:59:20.432Z,0.00
2018-12-11T06:00:20.407Z,0.00
2018-12-11T06:01:20.390Z,0.00
2018-12-11T06:02:20.360Z,0.00
2018-12-11T06:03:41.348Z,0.00
2018-12-11T06:04:20.321Z,0.00
2018-12-11T06:05:20.295Z,0.00
2018-12-11T06:06:20.274Z,0.00
2018-12-11T06:07:20.252Z,0.00
2018-12-11T06:08:20.234Z,0.00
2018-12-11T06:09:41.210Z,0.00
2018-12-11T06:10:20.185Z,0.00
2018-12-11T06:11:20.178Z,0.00
2018-12-11T06:12:20.143Z,0.00
2018-12-11T06:13:20.121Z,0.00
2018-12-11T06:14:20.099Z,0.00
2018-12-11T06:15:41.077Z,0.00
2018-12-11T06:16:20.056Z,0.00
2018-12-11T06:17:20.034Z,0.00
2018-12-11T06:18:20.014Z,0.00
2018-12-11T06:19:19.992Z,0.00
2018-12-11T06:20:19.975Z,0.00
2018-12-11T06:21:40.948Z,0.00
2018-12-11T06:22:19.923Z,0.00
2018-12-11T06:23:19.908Z,0.00
2018-12-11T06:24:19.884Z,0.00
2018-12-11T06:25:19.861Z,0.00
2018-12-11T06:26:19.840Z,0.00
2018-12-11T06:27:40.815Z,0.00
2018-12-11T06:28:19.791Z,0.00
2018-12-11T06:29:19.778Z,0.00
2018-12-11T06:30:19.751Z,0.00
2018-12-11T06:31:19.728Z,0.00
2018-12-11T06:32:19.704Z,0.00
2018-12-11T06:33:40.682Z,0.00
2018-12-11T06:34:19.685Z,0.00
2018-12-11T06:35:19.638Z,0.00
2018-12-11T06:36:19.616Z,0.00
2018-12-11T06:37:19.600Z,0.00
2018-12-11T06:38:19.578Z,0.00
2018-12-11T06:39:40.554Z,0.00
2018-12-11T06:40:19.550Z,0.00
2018-12-11T06:41:19.506Z,0.00
2018-12-11T06:42:19.484Z,0.00
2018-12-11T06:43:19.464Z,0.00
2018-12-11T06:44:19.445Z,0.00
2018-12-11T06:45:40.420Z,0.00
2018-12-11T06:46:19.397Z,0.00
2018-12-11T06:47:19.374Z,0.00
2018-12-11T06:48:19.356Z,0.00
2018-12-11T06:49:19.329Z,0.00
2018-12-11T06:50:19.327Z,0.00
2018-12-11T06:51:40.294Z,4.00
2018-12-11T06:52:19.271Z,4.00
2018-12-11T06:53:19.243Z,0.00
2018-12-11T06:54:19.230Z,4.00
2018-12-11T06:55:19.205Z,4.00
2018-12-11T06:56:19.185Z,8.00
2018-12-11T06:57:40.156Z,8.00
2018-12-11T06:58:19.136Z,8.00
2018-12-11T06:59:19.113Z,8.00
2018-12-11T07:00:19.098Z,12.00
2018-12-11T07:01:19.069Z,12.00
2018-12-11T07:02:19.050Z,16.00
2018-12-11T07:03:40.030Z,16.00
2018-12-11T07:04:19.005Z,40.00
2018-12-11T07:05:19.194Z,44.00
2018-12-11T07:06:18.963Z,52.00
2018-12-11T07:07:18.946Z,56.00
2018-12-11T07:08:18.918Z,60.00
2018-12-11T07:09:39.903Z,64.00
2018-12-11T07:10:18.875Z,64.00
2018-12-11T07:11:18.856Z,72.00
2018-12-11T07:12:18.833Z,80.00
2018-12-11T07:13:18.810Z,84.00
2018-12-11T07:14:18.791Z,92.00
2018-12-11T07:15:39.765Z,100.00
2018-12-11T07:16:18.747Z,104.00
2018-12-11T07:17:18.731Z,112.00
2018-12-11T07:18:18.710Z,120.00
2018-12-11T07:19:18.689Z,128.00
2018-12-11T07:20:18.662Z,136.00
2018-12-11T07:21:39.636Z,148.00
2018-12-11T07:22:18.613Z,160.00
2018-12-11T07:23:18.599Z,168.00
2018-12-11T07:24:18.569Z,180.00
2018-12-11T07:25:18.550Z,192.00
2018-12-11T07:26:18.526Z,208.00
2018-12-11T07:27:39.509Z,220.00
2018-12-11T07:28:18.485Z,232.00
2018-12-11T07:29:18.460Z,248.00
2018-12-11T07:30:18.447Z,264.00
2018-12-11T07:31:18.421Z,276.00
2018-12-11T07:32:18.393Z,292.00
2018-12-11T07:33:39.376Z,308.00
2018-12-11T07:34:18.365Z,324.00
2018-12-11T07:35:18.330Z,340.00
2018-12-11T07:36:18.307Z,360.00
2018-12-11T07:37:18.293Z,376.00
2018-12-11T07:38:18.285Z,392.00
2018-12-11T07:39:39.243Z,404.00
2018-12-11T07:40:18.231Z,424.00
2018-12-11T07:41:18.198Z,440.00
2018-12-11T07:42:18.176Z,460.00
2018-12-11T07:43:18.154Z,484.00
2018-12-11T07:44:18.137Z,504.00
2018-12-11T07:45:39.118Z,524.00
2018-12-11T07:46:18.087Z,544.00
2018-12-11T07:47:18.070Z,568.00
2018-12-11T07:48:18.045Z,588.00
2018-12-11T07:49:18.020Z,616.00
2018-12-11T07:50:18.055Z,636.00
2018-12-11T07:51:38.985Z,668.00
2018-12-11T07:52:17.957Z,700.00
2018-12-11T07:53:17.934Z,736.00
2018-12-11T07:54:17.912Z,780.00
2018-12-11T07:55:17.894Z,808.00
2018-12-11T07:56:17.883Z,820.00
2018-12-11T07:57:38.848Z,832.00
2018-12-11T07:58:17.827Z,852.00
2018-12-11T07:59:17.808Z,892.00
2018-12-11T08:00:17.789Z,928.00
2018-12-11T08:01:17.759Z,952.00
2018-12-11T08:02:17.740Z,964.00
2018-12-11T08:03:38.719Z,968.00
2018-12-11T08:04:17.696Z,992.00
2018-12-11T08:05:17.670Z,1012.00
2018-12-11T08:06:17.653Z,1016.00
2018-12-11T08:07:17.626Z,1040.00
2018-12-11T08:08:17.609Z,1068.00
2018-12-11T08:09:38.589Z,1092.00
2018-12-11T08:10:17.624Z,1088.00
2018-12-11T08:11:17.547Z,1120.00
2018-12-11T08:12:17.520Z,1156.00
2018-12-11T08:13:17.500Z,1176.00
2018-12-11T08:14:17.477Z,1200.00
2018-12-11T08:15:38.459Z,1224.00
2018-12-11T08:16:17.430Z,1244.00
2018-12-11T08:17:17.408Z,1304.00
2018-12-11T08:18:17.511Z,1388.00
2018-12-11T08:19:17.365Z,1460.00
2018-12-11T08:20:17.376Z,1620.00
2018-12-11T08:21:38.323Z,1764.00
2018-12-11T08:22:17.301Z,1788.00
2018-12-11T08:23:17.284Z,1616.00
2018-12-11T08:24:17.656Z,1548.00
2018-12-11T08:25:17.235Z,1504.00
2018-12-11T08:26:17.219Z,1524.00
2018-12-11T08:27:38.198Z,1568.00
2018-12-11T08:28:17.175Z,1552.00
2018-12-11T08:29:17.592Z,1532.00
2018-12-11T08:30:17.378Z,1520.00
2018-12-11T08:31:17.120Z,1500.00
2018-12-11T08:32:17.078Z,1568.00
2018-12-11T08:33:38.065Z,1660.00
2018-12-11T08:34:17.034Z,1716.00
2018-12-11T08:35:17.014Z,1656.00
2018-12-11T08:36:16.998Z,1600.00
2018-12-11T08:37:16.972Z,1664.00
2018-12-11T08:38:16.949Z,1696.00
2018-12-11T08:39:37.936Z,1564.00
2018-12-11T08:40:16.914Z,1560.00
2018-12-11T08:41:16.892Z,1592.00
2018-12-11T08:42:16.867Z,1608.00
2018-12-11T08:43:16.840Z,1668.00
2018-12-11T08:44:16.818Z,1740.00
2018-12-11T08:45:37.797Z,1900.00
2018-12-11T08:46:16.775Z,2004.00
2018-12-11T08:47:16.762Z,2176.00
2018-12-11T08:48:16.740Z,2464.00
2018-12-11T08:49:16.710Z,2784.00
2018-12-11T08:50:16.688Z,2812.00
2018-12-11T08:51:37.669Z,2776.00
2018-12-11T08:52:17.587Z,2740.00
2018-12-11T08:53:16.624Z,2808.00
2018-12-11T08:54:16.603Z,2976.00
2018-12-11T08:55:16.650Z,3112.00
2018-12-11T08:56:16.561Z,3108.00
2018-12-11T08:57:37.538Z,3080.00
2018-12-11T08:58:16.519Z,3124.00
2018-12-11T08:59:16.497Z,2940.00
2018-12-11T09:00:16.477Z,2704.00
2018-12-11T09:01:16.453Z,2368.00
2018-12-11T09:02:16.448Z,2148.00
2018-12-11T09:03:37.415Z,2048.00
2018-12-11T09:04:16.427Z,1872.00
2018-12-11T09:05:16.373Z,1844.00
2018-12-11T09:06:16.347Z,1792.00
2018-12-11T09:07:16.326Z,1828.00
2018-12-11T09:08:16.307Z,1928.00
2018-12-11T09:09:37.288Z,2048.00
2018-12-11T09:10:16.274Z,2068.00
2018-12-11T09:11:16.248Z,1984.00
2018-12-11T09:12:16.228Z,1860.00
2018-12-11T09:13:16.197Z,1716.00
2018-12-11T09:14:16.178Z,1704.00
2018-12-11T09:15:37.167Z,1728.00
2018-12-11T09:16:16.152Z,1816.00
2018-12-11T09:17:16.115Z,2016.00
2018-12-11T09:18:16.101Z,2132.00
2018-12-11T09:19:16.072Z,2064.00
2018-12-11T09:20:16.050Z,2208.00
2018-12-11T09:21:37.032Z,2092.00
2018-12-11T09:22:16.007Z,2256.00
2018-12-11T09:23:15.988Z,2484.00
2018-12-11T09:24:15.968Z,2572.00
2018-12-11T09:25:15.950Z,2576.00
2018-12-11T09:26:15.927Z,2704.00
2018-12-11T09:27:36.899Z,2784.00
2018-12-11T09:28:15.882Z,2796.00
2018-12-11T09:29:15.867Z,2872.00
2018-12-11T09:30:15.840Z,3316.00
2018-12-11T09:31:15.813Z,4016.00
2018-12-11T09:32:15.797Z,5332.00
2018-12-11T09:33:36.775Z,7316.00
2018-12-11T09:34:15.754Z,8560.00
2018-12-11T09:35:15.733Z,8036.00
2018-12-11T09:36:15.710Z,4772.00
2018-12-11T09:37:15.690Z,3456.00
2018-12-11T09:38:15.675Z,3368.00
2018-12-11T09:39:36.656Z,3340.00
2018-12-11T09:40:15.631Z,3272.00
2018-12-11T09:41:15.611Z,3400.00
2018-12-11T09:42:15.587Z,3648.00
2018-12-11T09:43:15.573Z,4068.00
2018-12-11T09:44:15.544Z,4452.00
2018-12-11T09:45:36.542Z,4076.00
2018-12-11T09:46:15.506Z,3316.00
2018-12-11T09:47:15.485Z,2476.00
2018-12-11T09:48:15.468Z,2124.00
2018-12-11T09:49:15.441Z,2120.00
2018-12-11T09:50:15.420Z,2256.00
2018-12-11T09:51:36.403Z,2568.00
2018-12-11T09:52:15.379Z,2896.00
2018-12-11T09:53:15.356Z,3116.00
2018-12-11T09:54:15.341Z,4032.00
2018-12-11T09:55:15.319Z,6600.00
2018-12-11T09:56:15.322Z,5720.00
2018-12-11T09:57:36.273Z,5324.00
2018-12-11T09:58:15.252Z,5636.00
2018-12-11T09:59:15.239Z,5328.00
2018-12-11T10:00:15.217Z,4400.00
2018-12-11T10:01:15.190Z,3836.00
2018-12-11T10:02:15.171Z,4596.00
2018-12-11T10:03:36.195Z,4528.00
2018-12-11T10:04:15.127Z,3740.00
2018-12-11T10:05:15.105Z,3588.00
2018-12-11T10:06:15.088Z,3468.00
2018-12-11T10:07:15.068Z,3516.00
2018-12-11T10:08:15.048Z,3356.00
2018-12-11T10:09:36.026Z,2916.00
2018-12-11T10:10:15.021Z,2784.00
2018-12-11T10:11:14.986Z,2868.00
2018-12-11T10:12:14.964Z,2672.00
2018-12-11T10:13:14.943Z,2372.00
2018-12-11T10:14:14.923Z,2168.00
2018-12-11T10:15:35.910Z,2028.00
2018-12-11T10:16:14.890Z,1924.00
2018-12-11T10:17:14.869Z,1944.00
2018-12-11T10:18:14.844Z,1984.00
2018-12-11T10:19:14.820Z,2048.00
2018-12-11T10:20:14.885Z,2156.00
2018-12-11T10:21:35.875Z,2520.00
2018-12-11T10:22:14.760Z,2532.00
2018-12-11T10:23:14.738Z,2568.00
2018-12-11T10:24:14.721Z,2624.00
2018-12-11T10:25:14.701Z,2920.00
2018-12-11T10:26:14.678Z,3212.00
2018-12-11T10:27:36.606Z,3496.00
2018-12-11T10:28:14.661Z,4108.00
2018-12-11T10:29:14.619Z,4120.00
2018-12-11T10:30:14.628Z,3892.00
2018-12-11T10:31:14.575Z,3812.00
2018-12-11T10:32:14.556Z,4296.00
2018-12-11T10:33:35.538Z,4864.00
2018-12-11T10:34:14.514Z,4756.00
2018-12-11T10:35:14.493Z,4084.00
2018-12-11T10:36:14.483Z,3488.00
2018-12-11T10:37:14.469Z,2940.00
2018-12-11T10:38:14.429Z,2712.00
2018-12-11T10:39:35.413Z,2680.00
2018-12-11T10:40:14.392Z,2484.00
2018-12-11T10:41:14.370Z,2368.00
2018-12-11T10:42:14.350Z,2288.00
2018-12-11T10:43:14.327Z,2264.00
2018-12-11T10:44:14.307Z,2260.00
2018-12-11T10:45:35.288Z,2352.00
2018-12-11T10:46:14.266Z,2464.00
2018-12-11T10:47:14.249Z,2632.00
2018-12-11T10:48:14.224Z,2700.00
2018-12-11T10:49:14.217Z,2536.00
2018-12-11T10:50:14.184Z,2424.00
2018-12-11T10:51:35.163Z,2324.00
2018-12-11T10:52:14.142Z,2396.00
2018-12-11T10:53:14.121Z,2396.00
2018-12-11T10:54:14.099Z,2372.00
2018-12-11T10:55:14.082Z,2488.00
2018-12-11T10:56:14.061Z,2496.00
2018-12-11T10:57:35.040Z,2536.00
2018-12-11T10:58:14.046Z,2556.00
2018-12-11T10:59:14.010Z,2388.00
2018-12-11T11:00:13.980Z,2240.00
2018-12-11T11:01:13.969Z,2520.00
2018-12-11T11:02:13.942Z,2464.00
2018-12-11T11:03:34.921Z,2560.00
2018-12-11T11:04:13.900Z,2532.00
2018-12-11T11:05:13.875Z,2584.00
2018-12-11T11:06:13.862Z,2568.00
2018-12-11T11:07:13.835Z,2576.00
2018-12-11T11:08:13.823Z,2564.00
2018-12-11T11:09:34.837Z,2608.00
2018-12-11T11:10:13.781Z,2620.00
2018-12-11T11:11:13.755Z,2452.00
2018-12-11T11:12:13.748Z,2628.00
2018-12-11T11:13:13.711Z,2632.00
2018-12-11T11:14:13.740Z,2612.00
2018-12-11T11:15:34.690Z,2592.00
2018-12-11T11:16:13.657Z,2644.00
2018-12-11T11:17:13.630Z,2692.00
2018-12-11T11:18:13.613Z,2684.00
2018-12-11T11:19:13.593Z,2696.00
2018-12-11T11:20:13.574Z,2756.00
2018-12-11T11:21:34.551Z,2736.00
2018-12-11T11:22:13.526Z,2788.00
2018-12-11T11:23:13.514Z,2896.00
2018-12-11T11:24:13.491Z,3056.00
2018-12-11T11:25:13.468Z,3156.00
2018-12-11T11:26:13.451Z,3424.00
2018-12-11T11:27:34.444Z,3656.00
2018-12-11T11:28:13.409Z,3896.00
2018-12-11T11:29:13.395Z,4084.00
2018-12-11T11:30:13.371Z,4256.00
2018-12-11T11:31:13.348Z,4056.00
2018-12-11T11:32:13.330Z,4172.00
2018-12-11T11:33:34.309Z,3884.00
2018-12-11T11:34:13.289Z,3884.00
2018-12-11T11:35:13.266Z,4308.00
2018-12-11T11:36:13.245Z,4316.00
2018-12-11T11:37:13.232Z,4700.00
2018-12-11T11:38:13.207Z,4864.00
2018-12-11T11:39:34.189Z,5116.00
2018-12-11T11:40:13.169Z,5372.00
2018-12-11T11:41:13.149Z,5752.00
2018-12-11T11:42:13.130Z,5708.00
2018-12-11T11:43:13.107Z,5492.00
2018-12-11T11:44:13.096Z,5212.00
2018-12-11T11:45:34.069Z,5472.00
2018-12-11T11:46:13.047Z,6328.00
2018-12-11T11:47:13.032Z,5984.00
2018-12-11T11:48:13.013Z,5084.00
2018-12-11T11:49:12.991Z,4412.00
2018-12-11T11:50:12.978Z,4272.00
2018-12-11T11:51:33.951Z,4116.00
2018-12-11T11:52:12.929Z,4060.00
2018-12-11T11:53:14.002Z,4132.00
2018-12-11T11:54:12.890Z,4020.00
2018-12-11T11:55:12.874Z,4216.00
2018-12-11T11:56:12.853Z,4548.00
2018-12-11T11:57:33.833Z,4568.00
2018-12-11T11:58:12.839Z,4448.00
2018-12-11T11:59:12.794Z,4064.00
2018-12-11T12:00:12.778Z,3748.00
2018-12-11T12:01:12.764Z,3500.00
2018-12-11T12:02:12.736Z,3268.00
2018-12-11T12:03:33.725Z,2920.00
2018-12-11T12:04:12.702Z,2752.00
2018-12-11T12:05:12.683Z,2880.00
2018-12-11T12:06:12.679Z,3148.00
2018-12-11T12:07:12.643Z,3524.00
2018-12-11T12:08:12.623Z,3856.00
2018-12-11T12:09:33.605Z,4088.00
2018-12-11T12:10:12.585Z,3992.00
2018-12-11T12:11:12.565Z,3864.00
2018-12-11T12:12:12.547Z,3576.00
2018-12-11T12:13:12.529Z,3292.00
2018-12-11T12:14:12.509Z,2880.00
2018-12-11T12:15:33.491Z,2540.00
2018-12-11T12:16:12.469Z,2344.00
2018-12-11T12:17:12.449Z,2256.00
2018-12-11T12:18:12.429Z,2484.00
2018-12-11T12:19:12.409Z,2268.00
2018-12-11T12:20:12.410Z,2524.00
2018-12-11T12:21:33.370Z,2568.00
2018-12-11T12:22:12.352Z,2736.00
2018-12-11T12:23:12.331Z,2980.00
2018-12-11T12:24:12.312Z,3368.00
2018-12-11T12:25:12.290Z,3156.00
2018-12-11T12:26:12.276Z,3112.00
2018-12-11T12:27:33.259Z,3072.00
2018-12-11T12:28:12.290Z,2936.00
2018-12-11T12:29:12.214Z,2696.00
2018-12-11T12:30:12.195Z,2544.00
2018-12-11T12:31:12.179Z,2512.00
2018-12-11T12:32:12.157Z,2496.00
2018-12-11T12:33:33.138Z,2688.00
2018-12-11T12:34:12.118Z,3028.00
2018-12-11T12:35:12.096Z,3652.00
2018-12-11T12:36:12.076Z,4416.00
2018-12-11T12:37:12.058Z,5320.00
2018-12-11T12:38:12.038Z,5408.00
2018-12-11T12:39:33.022Z,5736.00
2018-12-11T12:40:11.999Z,6196.00
2018-12-11T12:41:11.987Z,6140.00
2018-12-11T12:42:11.961Z,4964.00
2018-12-11T12:43:11.941Z,4380.00
2018-12-11T12:44:11.926Z,4064.00
2018-12-11T12:45:32.903Z,3936.00
2018-12-11T12:46:11.881Z,3872.00